Weather at Pulkovo Airport

Public forecast

Using degrees Celsius for public forecast. Weather courtesy of forecast.io.

Current aviation weather report (METAR) for Pulkovo Airport

Retrieved 2021/10/21 04:30 UTC (18 minutes ago):

ULLI 210430Z 24005G12MPS 9999 FEW018CB SCT040 12/09 Q0982 R28L/290350 NOSIG

Aviation forecast (TAF) for Pulkovo Airport

Retrieved 2021-10-21 03:21 UTC (1 hour ago):

TAF ULLI 210159Z 2103/2203 25006G13MPS 6000 -RA BKN012 OVC020 TEMPO 2103/2107 24008G15MPS 3000 -SHRA BKN008 BKN016CB BECMG 2112/2114 21007G14MPS BKN016 TEMPO 2114/2118 BKN010 TEMPO 2121/2124 4000 -SHRA BKN006 BKN016CB